Dugginsville, Missouri
Current Conditions -  °F | °C
As of 2:53 PM on Wednesday 26 Nov 2014 (Local Time) from KBPK Reporting Station
Overcast Overcast  
Wind Chill: 42°   Ceiling: 8000
Heat Index: 47°   Visibility: 10mi
Dew Point: 28°   Wind: 12mph
Humidity: 48%   Direction: 310°NW
Pressure: 30.03"   Gusts: 21mph
Location:  36.5847°N, 92.7117°W
Report Text: KBPK 262053Z AUTO 31010G18KT 10SM FEW065 OVC080 08/M02 A3003 RMK AO2 SLP173 T00831022 53016
Loading
Personal Weather Stations






























Interactive Weather Map New forecast layout! Learn more

10-Day Weather Forecast

Advertisements
Track Severe Weather on mobile